Time;durP1;ratioP1;P1;durP2;ratioP2;P2;SDS_P1;SDS_P2;PMS_P1;PMS_P2;Temp;Humidity;BMP_temperature;BMP_pressure;BME280_temperature;BME280_humidity;BME280_pressure;Samples;Min_cycle;Max_cycle;Signal;HPM_P1;HPM_P2
2021/07/25 00:01:37;;;;;;;;;;;25.30;48.70;;;;;;1582613;73;700;-71
2021/07/25 00:03:39;;;;;;;;;;;25.30;48.80;;;;;;1579128;73;1181;-69
2021/07/25 00:05:42;;;;;;;;;;;25.30;48.80;;;;;;1599798;73;666;-72
2021/07/25 00:07:43;;;;;;;;;;;25.30;48.70;;;;;;1601509;73;730;-70
2021/07/25 00:09:45;;;;;;;;;;;25.30;48.60;;;;;;1596056;73;803;-70
2021/07/25 00:11:47;;;;;;;;;;;25.40;48.60;;;;;;1594730;73;1925;-68
2021/07/25 00:13:52;;;;;;;;;;;25.30;48.50;;;;;;1601360;73;1149;-69
2021/07/25 00:15:53;;;;;;;;;;;25.40;48.50;;;;;;1582559;73;1153;-69
2021/07/25 00:17:55;;;;;;;;;;;25.30;48.40;;;;;;1591343;73;731;-69
2021/07/25 00:19:56;;;;;;;;;;;25.30;48.40;;;;;;1597531;74;692;-68
2021/07/25 00:21:58;;;;;;;;;;;25.30;48.40;;;;;;1594164;73;697;-69
2021/07/25 00:24:01;;;;;;;;;;;25.30;48.50;;;;;;1592764;73;1131;-70
2021/07/25 00:26:04;;;;;;;;;;;25.30;48.40;;;;;;1598417;73;703;-69
2021/07/25 00:28:05;;;;;;;;;;;25.30;48.40;;;;;;1592167;73;727;-68
2021/07/25 00:30:08;;;;;;;;;;;25.30;48.40;;;;;;1591690;73;750;-69
2021/07/25 00:32:10;;;;;;;;;;;25.30;48.50;;;;;;1594539;73;1929;-68
2021/07/25 00:34:12;;;;;;;;;;;25.30;48.50;;;;;;1591182;73;1245;-69
2021/07/25 00:36:14;;;;;;;;;;;25.30;48.60;;;;;;1591497;73;779;-69
2021/07/25 00:38:16;;;;;;;;;;;25.30;48.50;;;;;;1590338;73;697;-68
2021/07/25 00:40:25;;;;;;;;;;;25.30;48.50;;;;;;1583068;73;719;-69
2021/07/25 00:42:29;;;;;;;;;;;25.30;48.50;;;;;;1591829;73;740;-67
2021/07/25 00:44:31;;;;;;;;;;;25.30;48.50;;;;;;1570320;73;1110;-69
2021/07/25 00:46:32;;;;;;;;;;;25.30;48.50;;;;;;1590527;73;738;-70
2021/07/25 00:48:35;;;;;;;;;;;25.30;48.60;;;;;;1580332;73;790;-69
2021/07/25 00:50:37;;;;;;;;;;;25.30;48.60;;;;;;1580463;73;690;-70
2021/07/25 00:52:39;;;;;;;;;;;25.30;48.50;;;;;;1589377;73;1934;-70
2021/07/25 00:54:41;;;;;;;;;;;25.30;48.60;;;;;;1583087;73;1138;-70
2021/07/25 00:56:42;;;;;;;;;;;25.30;48.70;;;;;;1588395;73;655;-70
2021/07/25 00:58:44;;;;;;;;;;;25.30;48.70;;;;;;1589215;73;744;-70
2021/07/25 01:00:46;;;;;;;;;;;25.30;48.60;;;;;;1593134;73;737;-70
2021/07/25 01:02:50;;;;;;;;;;;25.30;48.60;;;;;;1588072;73;709;-69
2021/07/25 01:04:53;;;;;;;;;;;25.30;48.60;;;;;;1600345;74;1093;-70
2021/07/25 01:07:00;;;;;;;;;;;25.40;48.60;;;;;;1597640;73;1093;-70
2021/07/25 01:09:03;;;;;;;;;;;25.30;48.60;;;;;;1599096;73;1625;-70
2021/07/25 01:11:05;;;;;;;;;;;25.40;48.60;;;;;;1595317;73;942;-71
2021/07/25 01:13:12;;;;;;;;;;;25.30;48.50;;;;;;1596255;73;1938;-70
2021/07/25 01:15:15;;;;;;;;;;;25.40;48.50;;;;;;1583338;73;1048;-71
2021/07/25 01:17:25;;;;;;;;;;;25.30;48.60;;;;;;1603012;73;677;-71
2021/07/25 01:19:27;;;;;;;;;;;25.30;48.60;;;;;;1597752;73;730;-70
2021/07/25 01:21:29;;;;;;;;;;;25.30;48.70;;;;;;1597666;73;703;-71
2021/07/25 01:23:31;;;;;;;;;;;25.30;48.70;;;;;;1594458;73;1156;-70
2021/07/25 01:25:34;;;;;;;;;;;25.40;48.80;;;;;;1610465;73;702;-70
2021/07/25 01:27:40;;;;;;;;;;;25.30;48.70;;;;;;1588010;73;687;-70
2021/07/25 01:29:42;;;;;;;;;;;25.30;48.70;;;;;;1591044;73;697;-67
2021/07/25 01:31:44;;;;;;;;;;;25.30;48.60;;;;;;1599228;73;701;-70
2021/07/25 01:33:48;;;;;;;;;;;25.30;48.60;;;;;;1562295;73;3129;-69
2021/07/25 01:35:50;;;;;;;;;;;25.30;48.60;;;;;;1611703;72;933;-70
2021/07/25 01:37:52;;;;;;;;;;;25.30;48.60;;;;;;1620555;73;795;-69
2021/07/25 01:39:54;;;;;;;;;;;25.30;48.60;;;;;;1623823;73;727;-69
2021/07/25 01:41:56;;;;;;;;;;;25.30;48.70;;;;;;1625090;72;778;-70
2021/07/25 01:43:57;;;;;;;;;;;25.30;48.70;;;;;;1646427;72;1227;-74
2021/07/25 01:45:59;;;;;;;;;;;25.30;48.60;;;;;;1610041;72;855;-72
2021/07/25 01:48:01;;;;;;;;;;;25.40;48.50;;;;;;1609913;72;806;-69
2021/07/25 01:50:04;;;;;;;;;;;25.30;48.40;;;;;;1612686;72;845;-70
2021/07/25 01:52:06;;;;;;;;;;;25.30;48.40;;;;;;1609779;72;1910;-72
2021/07/25 01:54:08;;;;;;;;;;;25.30;48.30;;;;;;1622654;72;1161;-71
2021/07/25 01:56:10;;;;;;;;;;;25.30;48.20;;;;;;1608734;72;727;-71
2021/07/25 01:58:12;;;;;;;;;;;25.30;48.20;;;;;;1610916;72;720;-72
2021/07/25 02:00:14;;;;;;;;;;;25.30;48.10;;;;;;1613503;72;756;-71
2021/07/25 02:02:16;;;;;;;;;;;25.30;48.10;;;;;;1620703;72;795;-69
2021/07/25 02:04:18;;;;;;;;;;;25.20;48.00;;;;;;1608804;73;1152;-70
2021/07/25 02:06:20;;;;;;;;;;;25.30;48.00;;;;;;1612566;72;754;-70
2021/07/25 02:08:22;;;;;;;;;;;25.30;48.00;;;;;;1612062;72;812;-70
2021/07/25 02:10:23;;;;;;;;;;;25.20;48.00;;;;;;1611153;72;795;-70
2021/07/25 02:12:25;;;;;;;;;;;25.20;48.10;;;;;;1606998;72;1952;-69
2021/07/25 02:14:27;;;;;;;;;;;25.20;48.00;;;;;;1614996;72;1190;-72
2021/07/25 02:16:29;;;;;;;;;;;25.20;47.90;;;;;;1631712;72;787;-69
2021/07/25 02:18:31;;;;;;;;;;;25.30;47.90;;;;;;1614767;72;795;-70
2021/07/25 02:20:33;;;;;;;;;;;25.10;47.90;;;;;;1613978;72;766;-69
2021/07/25 02:22:35;;;;;;;;;;;25.20;47.90;;;;;;1615643;73;789;-69
2021/07/25 02:24:37;;;;;;;;;;;25.20;48.00;;;;;;1587576;74;1159;-69
2021/07/25 02:26:39;;;;;;;;;;;25.20;48.10;;;;;;1610718;73;790;-70
2021/07/25 02:28:41;;;;;;;;;;;25.30;48.10;;;;;;1609955;73;779;-70
2021/07/25 02:30:42;;;;;;;;;;;25.20;48.20;;;;;;1591517;73;781;-70
2021/07/25 02:32:44;;;;;;;;;;;25.30;48.00;;;;;;1596495;73;1938;-72
2021/07/25 02:34:46;;;;;;;;;;;25.20;48.00;;;;;;1608737;73;1135;-69
2021/07/25 02:36:48;;;;;;;;;;;25.20;48.10;;;;;;1596096;73;751;-68
2021/07/25 02:38:50;;;;;;;;;;;25.30;48.10;;;;;;1597630;73;782;-67
2021/07/25 02:40:52;;;;;;;;;;;25.30;48.10;;;;;;1617135;73;775;-68
2021/07/25 02:42:54;;;;;;;;;;;25.10;48.20;;;;;;1599185;73;786;-69
2021/07/25 02:44:55;;;;;;;;;;;25.20;48.10;;;;;;1605864;73;1125;-69
2021/07/25 02:46:57;;;;;;;;;;;25.20;48.10;;;;;;1610830;73;692;-69
2021/07/25 02:48:59;;;;;;;;;;;25.20;48.10;;;;;;1602311;73;725;-70
2021/07/25 02:51:01;;;;;;;;;;;25.10;48.10;;;;;;1618806;72;707;-69
2021/07/25 02:53:03;;;;;;;;;;;25.10;48.10;;;;;;1632784;72;1932;-68
2021/07/25 02:55:05;;;;;;;;;;;25.10;48.00;;;;;;1619460;72;1141;-68
2021/07/25 02:57:07;;;;;;;;;;;25.10;48.00;;;;;;1615260;72;707;-69
2021/07/25 02:59:09;;;;;;;;;;;25.20;48.00;;;;;;1608438;72;758;-69
2021/07/25 03:01:12;;;;;;;;;;;25.20;47.90;;;;;;1612377;72;714;-70
2021/07/25 03:03:14;;;;;;;;;;;25.20;48.00;;;;;;1616667;72;1035;-71
2021/07/25 03:05:16;;;;;;;;;;;25.20;48.10;;;;;;1624750;72;1179;-71
2021/07/25 03:07:18;;;;;;;;;;;25.10;48.10;;;;;;1624976;72;781;-67
2021/07/25 03:09:20;;;;;;;;;;;25.20;48.10;;;;;;1624603;72;768;-69
2021/07/25 03:11:22;;;;;;;;;;;25.10;48.10;;;;;;1625816;72;836;-68
2021/07/25 03:13:24;;;;;;;;;;;25.10;48.10;;;;;;1618434;72;1907;-69
2021/07/25 03:15:25;;;;;;;;;;;25.10;48.10;;;;;;1628191;72;839;-68
2021/07/25 03:17:27;;;;;;;;;;;25.10;48.10;;;;;;1622708;72;769;-69
2021/07/25 03:19:29;;;;;;;;;;;25.10;48.20;;;;;;1629127;72;783;-69
2021/07/25 03:21:31;;;;;;;;;;;25.20;48.20;;;;;;1632170;72;813;-71
2021/07/25 03:23:33;;;;;;;;;;;25.20;48.20;;;;;;1622224;72;1135;-72
2021/07/25 03:25:35;;;;;;;;;;;25.20;48.20;;;;;;1627470;72;789;-71
2021/07/25 03:27:37;;;;;;;;;;;25.30;48.20;;;;;;1632885;72;719;-69
2021/07/25 03:29:39;;;;;;;;;;;25.10;48.20;;;;;;1619349;72;730;-69
2021/07/25 03:31:41;;;;;;;;;;;25.20;48.20;;;;;;1631836;72;771;-71
2021/07/25 03:33:43;;;;;;;;;;;25.20;48.20;;;;;;1613935;72;1946;-69
2021/07/25 03:35:46;;;;;;;;;;;25.20;48.20;;;;;;1621410;72;800;-69
2021/07/25 03:37:47;;;;;;;;;;;25.20;48.20;;;;;;1634229;72;765;-69
2021/07/25 03:39:52;;;;;;;;;;;25.20;48.30;;;;;;1623951;72;795;-70
2021/07/25 03:41:53;;;;;;;;;;;25.10;48.40;;;;;;1614213;72;1700;-69
2021/07/25 03:43:55;;;;;;;;;;;25.10;48.40;;;;;;1624881;72;1178;-69
2021/07/25 03:45:57;;;;;;;;;;;25.20;48.40;;;;;;1622036;72;824;-71
2021/07/25 03:47:59;;;;;;;;;;;25.20;48.40;;;;;;1606355;72;752;-69
2021/07/25 03:50:00;;;;;;;;;;;25.20;48.30;;;;;;1632816;72;762;-69
2021/07/25 03:52:03;;;;;;;;;;;25.20;48.30;;;;;;1620987;72;773;-69
2021/07/25 03:54:05;;;;;;;;;;;25.10;48.40;;;;;;1607124;72;1960;-68
2021/07/25 03:56:07;;;;;;;;;;;25.10;48.50;;;;;;1609694;72;821;-69
2021/07/25 03:58:09;;;;;;;;;;;25.10;48.60;;;;;;1607779;72;722;-71
2021/07/25 04:00:11;;;;;;;;;;;25.10;48.60;;;;;;1603037;72;774;-70
2021/07/25 04:02:13;;;;;;;;;;;25.10;48.60;;;;;;1598983;72;876;-69
2021/07/25 04:04:15;;;;;;;;;;;25.10;48.60;;;;;;1630931;72;1177;-72
2021/07/25 04:06:17;;;;;;;;;;;25.20;48.70;;;;;;1621791;72;800;-72
2021/07/25 04:08:18;;;;;;;;;;;25.20;48.90;;;;;;1607332;72;632;-72
2021/07/25 04:10:20;;;;;;;;;;;25.10;49.10;;;;;;1640262;72;808;-73
2021/07/25 04:12:22;;;;;;;;;;;25.10;49.10;;;;;;1628558;72;715;-72
2021/07/25 04:14:24;;;;;;;;;;;25.10;49.10;;;;;;1626159;72;1987;-71
2021/07/25 04:16:26;;;;;;;;;;;25.10;49.20;;;;;;1604327;72;808;-74
2021/07/25 04:18:28;;;;;;;;;;;25.20;49.20;;;;;;1609103;72;897;-72
2021/07/25 04:20:30;;;;;;;;;;;25.10;49.20;;;;;;1628336;72;813;-72
2021/07/25 04:22:33;;;;;;;;;;;25.10;49.40;;;;;;1617860;72;753;-72
2021/07/25 04:24:35;;;;;;;;;;;25.10;49.50;;;;;;1598845;72;1785;-73
2021/07/25 04:26:37;;;;;;;;;;;25.10;49.60;;;;;;1610789;72;766;-73
2021/07/25 04:28:39;;;;;;;;;;;25.10;49.70;;;;;;1611842;72;790;-71
2021/07/25 04:30:41;;;;;;;;;;;25.20;49.60;;;;;;1611139;72;793;-72
2021/07/25 04:32:43;;;;;;;;;;;25.10;49.60;;;;;;1603925;72;714;-72
2021/07/25 04:34:45;;;;;;;;;;;25.20;49.60;;;;;;1605457;72;1941;-71
2021/07/25 04:36:47;;;;;;;;;;;25.20;49.60;;;;;;1611566;72;785;-71
2021/07/25 04:38:49;;;;;;;;;;;25.20;49.80;;;;;;1622298;72;761;-74
2021/07/25 04:40:58;;;;;;;;;;;25.20;49.90;;;;;;1616151;72;786;-71
2021/07/25 04:43:00;;;;;;;;;;;25.10;49.90;;;;;;1602749;72;1854;-74
2021/07/25 04:45:04;;;;;;;;;;;25.20;49.90;;;;;;1610530;72;1193;-72
2021/07/25 04:47:05;;;;;;;;;;;25.20;50.00;;;;;;1604506;72;758;-73
2021/07/25 04:49:11;;;;;;;;;;;25.20;50.10;;;;;;1603992;72;756;-73
2021/07/25 04:51:13;;;;;;;;;;;25.30;50.20;;;;;;1598828;72;860;-74
2021/07/25 04:53:19;;;;;;;;;;;25.20;50.20;;;;;;1606256;72;1947;-74
2021/07/25 04:55:22;;;;;;;;;;;25.20;50.20;;;;;;1602042;72;1899;-74
2021/07/25 04:57:24;;;;;;;;;;;25.30;50.30;;;;;;1602449;72;731;-74
2021/07/25 04:59:30;;;;;;;;;;;25.20;50.40;;;;;;1601447;72;723;-71
2021/07/25 05:01:34;;;;;;;;;;;25.30;50.40;;;;;;1598034;72;829;-73
2021/07/25 05:03:36;;;;;;;;;;;25.30;50.60;;;;;;1597000;72;1092;-75
2021/07/25 05:05:38;;;;;;;;;;;25.30;50.70;;;;;;1610463;72;751;-74
2021/07/25 05:07:40;;;;;;;;;;;25.20;50.80;;;;;;1600810;72;790;-72
2021/07/25 05:09:42;;;;;;;;;;;25.30;50.90;;;;;;1601828;72;748;-74
2021/07/25 05:11:47;;;;;;;;;;;25.20;50.90;;;;;;1604137;72;740;-74
2021/07/25 05:13:50;;;;;;;;;;;25.30;51.00;;;;;;1606521;72;1928;-72
2021/07/25 05:15:52;;;;;;;;;;;25.30;51.00;;;;;;1607763;72;740;-71
2021/07/25 05:17:55;;;;;;;;;;;25.30;51.00;;;;;;1608129;72;776;-72
2021/07/25 05:20:19;;;;;;;;;;;25.30;51.10;;;;;;1609537;72;1974;-73
2021/07/25 05:22:23;;;;;;;;;;;25.30;51.10;;;;;;1599975;72;1336;-72
2021/07/25 05:24:25;;;;;;;;;;;25.30;51.20;;;;;;1621958;72;1128;-72
2021/07/25 05:26:27;;;;;;;;;;;25.30;51.30;;;;;;1605006;72;790;-71
2021/07/25 05:28:29;;;;;;;;;;;25.30;51.40;;;;;;1603504;72;828;-72
2021/07/25 05:30:31;;;;;;;;;;;25.30;51.40;;;;;;1612390;72;750;-73
2021/07/25 05:32:33;;;;;;;;;;;25.30;51.40;;;;;;1605490;72;737;-72
2021/07/25 05:34:35;;;;;;;;;;;25.30;51.30;;;;;;1610289;72;1937;-73
2021/07/25 05:36:37;;;;;;;;;;;25.30;51.50;;;;;;1612560;72;720;-72
2021/07/25 05:38:39;;;;;;;;;;;25.30;51.40;;;;;;1611210;72;929;-72
2021/07/25 05:40:40;;;;;;;;;;;25.30;51.40;;;;;;1607240;72;729;-74
2021/07/25 05:42:42;;;;;;;;;;;25.30;51.50;;;;;;1610709;72;889;-73
2021/07/25 05:44:44;;;;;;;;;;;25.40;51.40;;;;;;1610381;72;1212;-73
2021/07/25 05:46:46;;;;;;;;;;;25.30;51.40;;;;;;1607025;72;765;-73
2021/07/25 05:48:48;;;;;;;;;;;25.40;51.40;;;;;;1607195;72;761;-74
2021/07/25 05:50:50;;;;;;;;;;;25.30;51.40;;;;;;1614505;72;762;-70
2021/07/25 05:52:53;;;;;;;;;;;25.40;51.40;;;;;;1605052;72;777;-73
2021/07/25 05:54:55;;;;;;;;;;;25.40;51.50;;;;;;1602732;72;1941;-71
2021/07/25 05:56:57;;;;;;;;;;;25.30;51.50;;;;;;1608744;72;885;-72
2021/07/25 05:58:59;;;;;;;;;;;25.30;51.50;;;;;;1605357;72;802;-74
2021/07/25 06:01:01;;;;;;;;;;;25.40;51.40;;;;;;1609339;72;727;-73
2021/07/25 06:03:03;;;;;;;;;;;25.30;51.50;;;;;;1604694;72;772;-73
2021/07/25 06:05:05;;;;;;;;;;;25.30;51.50;;;;;;1609968;72;1110;-72
2021/07/25 06:07:07;;;;;;;;;;;25.30;51.50;;;;;;1614794;72;1356;-69
2021/07/25 06:09:09;;;;;;;;;;;25.40;51.60;;;;;;1608456;72;727;-73
2021/07/25 06:11:11;;;;;;;;;;;25.40;51.70;;;;;;1614195;72;765;-73
2021/07/25 06:13:13;;;;;;;;;;;25.40;51.70;;;;;;1625155;72;923;-70
2021/07/25 06:15:14;;;;;;;;;;;25.40;51.70;;;;;;1608018;72;1940;-68
2021/07/25 06:17:16;;;;;;;;;;;25.40;51.40;;;;;;1607192;72;701;-68
2021/07/25 06:19:18;;;;;;;;;;;25.40;50.90;;;;;;1623637;72;768;-69
2021/07/25 06:21:20;;;;;;;;;;;25.30;50.70;;;;;;1622648;72;783;-68
2021/07/25 06:23:22;;;;;;;;;;;25.30;50.60;;;;;;1621509;72;1135;-68
2021/07/25 06:25:25;;;;;;;;;;;25.30;50.50;;;;;;1603636;72;760;-67
2021/07/25 06:27:27;;;;;;;;;;;25.30;50.40;;;;;;1616860;72;729;-66
2021/07/25 06:29:29;;;;;;;;;;;25.20;50.40;;;;;;1617457;72;734;-70
2021/07/25 06:31:30;;;;;;;;;;;25.20;50.40;;;;;;1630486;72;750;-68
2021/07/25 06:33:33;;;;;;;;;;;25.30;50.50;;;;;;1627317;72;1142;-67
2021/07/25 06:35:41;;;;;;;;;;;25.20;50.50;;;;;;1611879;72;1905;-68
2021/07/25 06:37:43;;;;;;;;;;;25.20;50.40;;;;;;1624103;72;804;-68
2021/07/25 06:39:45;;;;;;;;;;;25.10;50.40;;;;;;1622927;72;782;-69
2021/07/25 06:41:47;;;;;;;;;;;25.10;50.50;;;;;;1618515;72;832;-73
2021/07/25 06:43:48;;;;;;;;;;;25.10;50.50;;;;;;1619719;72;1162;-69
2021/07/25 06:45:50;;;;;;;;;;;25.20;50.50;;;;;;1623746;72;726;-68
2021/07/25 06:47:52;;;;;;;;;;;25.10;50.50;;;;;;1609365;72;719;-68
2021/07/25 06:49:54;;;;;;;;;;;25.20;50.60;;;;;;1612770;72;699;-70
2021/07/25 06:51:56;;;;;;;;;;;25.10;50.60;;;;;;1617553;72;731;-70
2021/07/25 06:53:58;;;;;;;;;;;25.10;50.60;;;;;;1612830;72;1921;-68
2021/07/25 06:56:01;;;;;;;;;;;25.10;50.60;;;;;;1605343;72;687;-64
2021/07/25 06:58:03;;;;;;;;;;;25.10;50.70;;;;;;1609955;72;1076;-69
2021/07/25 07:00:05;;;;;;;;;;;25.10;50.70;;;;;;1613072;72;770;-71
2021/07/25 07:02:07;;;;;;;;;;;25.10;50.70;;;;;;1613797;72;793;-72
2021/07/25 07:04:09;;;;;;;;;;;25.10;50.70;;;;;;1607716;72;1138;-70
2021/07/25 07:06:11;;;;;;;;;;;25.10;50.70;;;;;;1609087;72;751;-68
2021/07/25 07:08:12;;;;;;;;;;;25.10;50.70;;;;;;1617561;72;749;-68
2021/07/25 07:10:15;;;;;;;;;;;25.00;50.70;;;;;;1610937;72;736;-68
2021/07/25 07:12:17;;;;;;;;;;;25.10;50.70;;;;;;1620962;72;800;-67
2021/07/25 07:14:19;;;;;;;;;;;25.10;50.70;;;;;;1629493;72;1950;-67
2021/07/25 07:16:21;;;;;;;;;;;25.10;50.70;;;;;;1619856;72;788;-68
2021/07/25 07:18:23;;;;;;;;;;;25.10;50.70;;;;;;1626142;72;858;-67
2021/07/25 07:20:25;;;;;;;;;;;25.10;50.70;;;;;;1625998;72;905;-67
2021/07/25 07:22:27;;;;;;;;;;;25.10;50.80;;;;;;1618170;72;733;-67
2021/07/25 07:24:29;;;;;;;;;;;25.00;50.80;;;;;;1612966;72;1164;-68
2021/07/25 07:26:31;;;;;;;;;;;25.00;50.80;;;;;;1618807;72;715;-71
2021/07/25 07:28:33;;;;;;;;;;;25.10;50.80;;;;;;1628822;72;716;-68
2021/07/25 07:30:35;;;;;;;;;;;25.10;50.80;;;;;;1621280;72;824;-68
2021/07/25 07:32:37;;;;;;;;;;;25.10;50.90;;;;;;1619061;72;872;-67
2021/07/25 07:34:39;;;;;;;;;;;25.10;50.90;;;;;;1606998;72;2090;-66
2021/07/25 07:36:41;;;;;;;;;;;25.10;51.00;;;;;;1612180;72;749;-69
2021/07/25 07:38:43;;;;;;;;;;;25.10;51.10;;;;;;1626933;72;726;-67
2021/07/25 07:40:44;;;;;;;;;;;25.00;51.20;;;;;;1630477;72;715;-66
2021/07/25 07:42:46;;;;;;;;;;;25.10;51.30;;;;;;1609234;72;723;-68
2021/07/25 07:44:48;;;;;;;;;;;25.10;51.30;;;;;;1613977;72;1217;-66
2021/07/25 07:46:50;;;;;;;;;;;25.10;51.30;;;;;;1601291;73;686;-67
2021/07/25 07:48:52;;;;;;;;;;;25.00;51.40;;;;;;1595876;73;728;-67
2021/07/25 07:50:54;;;;;;;;;;;25.00;51.40;;;;;;1602671;73;698;-67
2021/07/25 07:52:57;;;;;;;;;;;25.10;51.40;;;;;;1609205;73;820;-68
2021/07/25 07:54:59;;;;;;;;;;;25.10;51.50;;;;;;1607683;72;1929;-66
2021/07/25 07:57:01;;;;;;;;;;;25.10;51.50;;;;;;1608404;73;978;-67
2021/07/25 07:59:03;;;;;;;;;;;25.10;51.50;;;;;;1598509;73;696;-67
2021/07/25 08:01:05;;;;;;;;;;;25.10;51.60;;;;;;1607441;73;741;-67
2021/07/25 08:03:07;;;;;;;;;;;25.10;51.60;;;;;;1600455;73;763;-67
2021/07/25 08:05:09;;;;;;;;;;;25.10;51.60;;;;;;1607432;73;1123;-68
2021/07/25 08:07:11;;;;;;;;;;;25.10;51.60;;;;;;1594792;73;794;-67
2021/07/25 08:09:13;;;;;;;;;;;25.10;51.70;;;;;;1593559;73;731;-68
2021/07/25 08:11:15;;;;;;;;;;;25.10;51.60;;;;;;1605094;73;744;-64
2021/07/25 08:13:17;;;;;;;;;;;25.10;51.70;;;;;;1604163;73;770;-67
2021/07/25 08:15:19;;;;;;;;;;;25.10;51.60;;;;;;1606121;73;1934;-67
2021/07/25 08:17:21;;;;;;;;;;;25.00;51.70;;;;;;1608530;73;716;-66
2021/07/25 08:19:23;;;;;;;;;;;25.00;51.70;;;;;;1610501;73;718;-67
2021/07/25 08:21:24;;;;;;;;;;;25.10;51.70;;;;;;1609431;72;758;-67
2021/07/25 08:23:26;;;;;;;;;;;25.10;51.70;;;;;;1592650;73;785;-67
2021/07/25 08:25:28;;;;;;;;;;;25.00;51.70;;;;;;1614633;73;1139;-67
2021/07/25 08:27:30;;;;;;;;;;;25.00;51.80;;;;;;1597189;73;787;-67
2021/07/25 08:29:32;;;;;;;;;;;25.00;51.80;;;;;;1610613;73;797;-67
2021/07/25 08:31:34;;;;;;;;;;;25.00;51.80;;;;;;1601102;73;712;-67
2021/07/25 08:33:36;;;;;;;;;;;25.00;51.80;;;;;;1602794;73;798;-67
2021/07/25 08:35:38;;;;;;;;;;;25.00;51.80;;;;;;1606129;72;1943;-68
2021/07/25 08:37:40;;;;;;;;;;;25.00;51.80;;;;;;1597263;73;718;-67
2021/07/25 08:39:41;;;;;;;;;;;25.00;51.80;;;;;;1606527;73;721;-67
2021/07/25 08:41:48;;;;;;;;;;;25.00;51.80;;;;;;1596808;72;630;-66
2021/07/25 08:43:50;;;;;;;;;;;25.00;51.80;;;;;;1594311;73;1183;-64
2021/07/25 08:45:52;;;;;;;;;;;25.00;51.70;;;;;;1596107;73;760;-67
2021/07/25 08:47:54;;;;;;;;;;;25.00;51.80;;;;;;1602095;73;626;-67
2021/07/25 08:49:59;;;;;;;;;;;25.00;51.70;;;;;;1601495;73;733;-67
2021/07/25 08:52:01;;;;;;;;;;;25.00;51.80;;;;;;1597648;72;645;-67
2021/07/25 08:54:04;;;;;;;;;;;25.00;51.80;;;;;;1561804;74;1176;-66
2021/07/25 08:56:06;;;;;;;;;;;25.00;51.80;;;;;;1604632;73;1946;-68
2021/07/25 08:58:08;;;;;;;;;;;25.00;51.80;;;;;;1601414;73;802;-64
2021/07/25 09:00:12;;;;;;;;;;;25.00;51.80;;;;;;1600939;73;571;-68
2021/07/25 09:02:23;;;;;;;;;;;25.00;51.80;;;;;;1597800;73;1446;-67
2021/07/25 09:04:25;;;;;;;;;;;25.00;51.80;;;;;;1601525;72;1151;-65
2021/07/25 09:06:27;;;;;;;;;;;25.00;51.80;;;;;;1596387;73;783;-67
2021/07/25 09:08:29;;;;;;;;;;;25.00;51.90;;;;;;1597969;73;661;-66
2021/07/25 09:10:31;;;;;;;;;;;25.00;51.90;;;;;;1600599;73;717;-66
2021/07/25 09:12:33;;;;;;;;;;;25.00;51.90;;;;;;1597966;73;742;-68
2021/07/25 09:14:35;;;;;;;;;;;25.00;51.80;;;;;;1597168;73;1129;-67
2021/07/25 09:16:36;;;;;;;;;;;25.00;51.90;;;;;;1603666;73;1900;-66
2021/07/25 09:18:38;;;;;;;;;;;25.00;51.90;;;;;;1591035;72;805;-67
2021/07/25 09:20:40;;;;;;;;;;;25.00;51.90;;;;;;1590465;73;764;-66
2021/07/25 09:22:54;;;;;;;;;;;25.00;52.00;;;;;;1595471;73;775;-67
2021/07/25 09:24:53;;;;;;;;;;;25.00;51.90;;;;;;1594592;73;1115;-68
2021/07/25 09:26:57;;;;;;;;;;;25.00;51.90;;;;;;1608501;73;730;-67
2021/07/25 09:29:00;;;;;;;;;;;25.00;51.90;;;;;;1607533;73;721;-67
2021/07/25 09:31:12;;;;;;;;;;;25.00;52.00;;;;;;1601973;73;1158;-67
2021/07/25 09:33:16;;;;;;;;;;;25.00;52.00;;;;;;1610090;73;657;-66
2021/07/25 09:35:24;;;;;;;;;;;25.00;52.10;;;;;;1598341;73;1952;-67
2021/07/25 09:37:26;;;;;;;;;;;25.00;52.10;;;;;;1594598;73;702;-68
2021/07/25 09:39:38;;;;;;;;;;;25.00;52.10;;;;;;1608034;72;1090;-67
2021/07/25 09:41:40;;;;;;;;;;;25.00;52.10;;;;;;1595456;73;585;-66
2021/07/25 09:43:42;;;;;;;;;;;25.00;52.10;;;;;;1571222;73;1332;-68
2021/07/25 09:45:54;;;;;;;;;;;25.00;52.20;;;;;;1596642;73;734;-67
2021/07/25 09:47:56;;;;;;;;;;;24.90;52.20;;;;;;1591106;73;688;-67
2021/07/25 09:49:58;;;;;;;;;;;25.00;52.20;;;;;;1579575;74;1019;-67
2021/07/25 09:52:02;;;;;;;;;;;25.00;52.20;;;;;;1613416;72;716;-67
2021/07/25 09:54:05;;;;;;;;;;;25.00;52.20;;;;;;1598283;73;1963;-67
2021/07/25 09:56:19;;;;;;;;;;;25.00;52.20;;;;;;1572158;73;1915;-68
2021/07/25 09:58:33;;;;;;;;;;;25.00;52.20;;;;;;1600289;73;737;-67
2021/07/25 10:00:39;;;;;;;;;;;25.00;52.30;;;;;;1604820;73;992;-67
2021/07/25 10:02:49;;;;;;;;;;;25.00;52.30;;;;;;1604766;73;717;-67
2021/07/25 10:04:49;;;;;;;;;;;24.90;52.40;;;;;;1598184;73;1541;-68
2021/07/25 10:06:52;;;;;;;;;;;25.00;52.30;;;;;;1596851;73;1462;-67
2021/07/25 10:09:09;;;;;;;;;;;25.00;52.30;;;;;;1606989;73;654;-69
2021/07/25 10:11:12;;;;;;;;;;;24.90;52.30;;;;;;1603623;73;1868;-68
2021/07/25 10:13:15;;;;;;;;;;;24.90;52.30;;;;;;1597959;73;1403;-68
2021/07/25 10:15:17;;;;;;;;;;;24.90;52.30;;;;;;1598693;72;1914;-67
2021/07/25 10:17:19;;;;;;;;;;;25.00;52.30;;;;;;1589302;73;699;-68
2021/07/25 10:19:23;;;;;;;;;;;25.00;52.30;;;;;;1592006;73;647;-68
2021/07/25 10:21:24;;;;;;;;;;;25.00;52.30;;;;;;1593097;73;1270;-68
2021/07/25 10:23:32;;;;;;;;;;;25.00;52.40;;;;;;1599322;73;709;-67
2021/07/25 10:25:34;;;;;;;;;;;25.10;52.40;;;;;;1608755;73;1124;-68
2021/07/25 10:27:36;;;;;;;;;;;25.00;52.40;;;;;;1602024;73;776;-69
2021/07/25 10:29:39;;;;;;;;;;;25.00;52.40;;;;;;1599344;72;679;-65
2021/07/25 10:31:40;;;;;;;;;;;25.00;52.40;;;;;;1597518;73;703;-68
2021/07/25 10:33:42;;;;;;;;;;;25.00;52.50;;;;;;1593538;72;1138;-67
2021/07/25 10:35:44;;;;;;;;;;;25.00;52.50;;;;;;1605236;73;1932;-67
2021/07/25 10:37:49;;;;;;;;;;;25.00;52.60;;;;;;1593213;73;696;-69
2021/07/25 10:39:50;;;;;;;;;;;25.00;52.60;;;;;;1591363;73;1155;-67
2021/07/25 10:41:53;;;;;;;;;;;25.00;52.60;;;;;;1598685;73;710;-68
2021/07/25 10:43:54;;;;;;;;;;;25.00;52.60;;;;;;1593229;73;1134;-67
2021/07/25 10:46:17;;;;;;;;;;;25.00;52.60;;;;;;1607066;73;784;-69
2021/07/25 10:48:19;;;;;;;;;;;25.00;52.60;;;;;;1606099;73;770;-69
2021/07/25 10:50:21;;;;;;;;;;;25.00;52.70;;;;;;1602731;73;738;-68
2021/07/25 10:52:23;;;;;;;;;;;25.00;52.70;;;;;;1612884;73;762;-68
2021/07/25 10:54:27;;;;;;;;;;;25.10;52.80;;;;;;1592272;73;1114;-68
2021/07/25 10:56:48;;;;;;;;;;;25.10;52.80;;;;;;1587944;73;1911;-66
2021/07/25 10:58:53;;;;;;;;;;;25.10;52.80;;;;;;1587576;74;1012;-67
2021/07/25 11:00:56;;;;;;;;;;;25.10;52.80;;;;;;1587967;74;865;-67
2021/07/25 11:02:58;;;;;;;;;;;25.10;52.80;;;;;;1586382;74;741;-68
2021/07/25 11:05:01;;;;;;;;;;;25.10;52.80;;;;;;1590417;73;1150;-68
2021/07/25 11:07:20;;;;;;;;;;;25.10;52.80;;;;;;1612190;73;765;-67
2021/07/25 11:09:41;;;;;;;;;;;25.10;52.80;;;;;;1598609;72;694;-66
2021/07/25 11:11:44;;;;;;;;;;;25.10;52.80;;;;;;1601256;73;702;-67
2021/07/25 11:13:46;;;;;;;;;;;25.10;52.80;;;;;;1599405;72;1154;-67
2021/07/25 11:15:48;;;;;;;;;;;25.10;52.80;;;;;;1596392;73;1890;-68
2021/07/25 11:17:50;;;;;;;;;;;25.10;52.80;;;;;;1597554;73;796;-67
2021/07/25 11:19:52;;;;;;;;;;;25.20;52.80;;;;;;1592311;73;744;-69
2021/07/25 11:21:55;;;;;;;;;;;25.10;52.80;;;;;;1610565;73;710;-68
2021/07/25 11:23:57;;;;;;;;;;;25.20;53.00;;;;;;1604572;73;1133;-68
2021/07/25 11:25:59;;;;;;;;;;;25.20;53.30;;;;;;1607022;72;727;-67
2021/07/25 11:28:02;;;;;;;;;;;25.30;53.30;;;;;;1594893;72;808;-67
2021/07/25 11:30:04;;;;;;;;;;;25.40;53.80;;;;;;1606854;72;781;-68
2021/07/25 11:32:27;;;;;;;;;;;25.30;54.20;;;;;;1604451;73;761;-67
2021/07/25 11:34:31;;;;;;;;;;;25.30;54.70;;;;;;1597538;73;1151;-67
2021/07/25 11:36:33;;;;;;;;;;;25.30;55.00;;;;;;1600435;72;1921;-68
2021/07/25 11:38:35;;;;;;;;;;;25.30;54.90;;;;;;1591295;73;743;-68
2021/07/25 11:40:37;;;;;;;;;;;25.30;54.90;;;;;;1611554;73;822;-68
2021/07/25 11:42:39;;;;;;;;;;;25.30;54.70;;;;;;1602422;73;788;-67
2021/07/25 11:44:43;;;;;;;;;;;25.30;54.70;;;;;;1595125;73;1178;-68
2021/07/25 11:46:48;;;;;;;;;;;25.30;54.50;;;;;;1608776;73;756;-68
2021/07/25 11:49:07;;;;;;;;;;;25.30;54.60;;;;;;1614546;73;696;-68
2021/07/25 11:51:09;;;;;;;;;;;25.30;54.60;;;;;;1596530;73;753;-68
2021/07/25 11:53:11;;;;;;;;;;;25.30;54.60;;;;;;1607289;73;750;-69
2021/07/25 11:55:12;;;;;;;;;;;25.30;54.50;;;;;;1591508;72;1262;-67
2021/07/25 11:57:15;;;;;;;;;;;25.20;54.40;;;;;;1603749;73;1942;-67
2021/07/25 11:59:17;;;;;;;;;;;25.30;54.30;;;;;;1610080;72;853;-67
2021/07/25 12:01:20;;;;;;;;;;;25.30;54.40;;;;;;1602736;73;762;-68
2021/07/25 12:03:28;;;;;;;;;;;25.30;54.40;;;;;;1566550;74;1222;-68
2021/07/25 12:05:30;;;;;;;;;;;25.20;54.40;;;;;;1600500;72;1171;-67
2021/07/25 12:07:36;;;;;;;;;;;25.20;54.30;;;;;;1594103;72;764;-67
2021/07/25 12:09:38;;;;;;;;;;;25.30;54.30;;;;;;1597493;72;730;-68
2021/07/25 12:11:40;;;;;;;;;;;25.20;54.20;;;;;;1604967;73;751;-68
2021/07/25 12:13:49;;;;;;;;;;;25.30;54.10;;;;;;1594552;73;1179;-67